Time;durP1;ratioP1;P1;durP2;ratioP2;P2;SDS_P1;SDS_P2;PMS_P1;PMS_P2;Temp;Humidity;BMP_temperature;BMP_pressure;BME280_temperature;BME280_humidity;BME280_pressure;Samples;Min_cycle;Max_cycle;Signal;HPM_P1;HPM_P2
2022/11/27 00:01:36;;;;;;;1999.90;999.90;;;;;;;5.88;100.00;102044.44;5001990;28;20084;-73
2022/11/27 00:04:02;;;;;;;1999.90;999.90;;;;;;;5.78;100.00;102045.81;5001522;28;20046;-73
2022/11/27 00:06:28;;;;;;;1999.90;999.90;;;;;;;5.75;100.00;102043.09;5003326;28;20030;-73
2022/11/27 00:08:58;;;;;;;1999.90;999.90;;;;;;;5.75;100.00;102042.19;5003803;28;20030;-73
2022/11/27 00:11:25;;;;;;;1999.90;999.90;;;;;;;5.78;100.00;102037.06;5000904;28;20041;-73
2022/11/27 00:13:51;;;;;;;1999.90;999.90;;;;;;;5.71;100.00;102023.75;5001639;28;20092;-73
2022/11/27 00:16:18;;;;;;;1999.90;999.90;;;;;;;5.65;100.00;102028.72;5002550;28;20061;-73
2022/11/27 00:18:44;;;;;;;1999.90;999.90;;;;;;;5.60;100.00;102030.28;5002502;28;20038;-73
2022/11/27 00:21:12;;;;;;;1999.90;999.90;;;;;;;5.67;100.00;102021.84;4999567;28;20034;-73
2022/11/27 00:23:38;;;;;;;1999.90;999.90;;;;;;;5.68;100.00;102031.47;5002127;28;20045;-73
2022/11/27 00:26:05;;;;;;;1999.90;999.90;;;;;;;5.70;100.00;102029.81;5001446;28;20473;-73
2022/11/27 00:28:31;;;;;;;1999.90;999.90;;;;;;;5.72;100.00;102029.88;5003435;28;20061;-73
2022/11/27 00:31:02;;;;;;;1999.90;999.90;;;;;;;5.77;100.00;102035.28;4982876;28;20035;-73
2022/11/27 00:33:28;;;;;;;1999.90;999.90;;;;;;;5.79;100.00;102036.22;4999803;28;20073;-73
2022/11/27 00:35:53;;;;;;;1999.90;999.90;;;;;;;5.83;100.00;102035.50;5001566;28;20033;-73
2022/11/27 00:38:19;;;;;;;1999.90;999.90;;;;;;;5.78;100.00;102030.09;5005093;28;20065;-73
2022/11/27 00:40:45;;;;;;;1999.90;999.90;;;;;;;5.77;100.00;102035.28;5000920;28;20041;-73
2022/11/27 00:43:10;;;;;;;1999.90;999.90;;;;;;;5.65;100.00;102033.97;5002785;28;20509;-72
2022/11/27 00:45:36;;;;;;;1999.90;999.90;;;;;;;5.64;100.00;102029.59;5002339;28;20066;-73
2022/11/27 00:48:01;;;;;;;1999.90;999.90;;;;;;;5.66;100.00;102027.91;5002629;28;20053;-73
2022/11/27 00:50:30;;;;;;;1999.90;999.90;;;;;;;5.67;100.00;102027.06;5000078;28;20027;-73
2022/11/27 00:52:56;;;;;;;1999.90;999.90;;;;;;;5.60;100.00;102022.44;5004077;28;20045;-73
2022/11/27 00:55:21;;;;;;;1999.90;999.90;;;;;;;5.59;100.00;102025.00;5005028;28;20060;-73
2022/11/27 00:57:46;;;;;;;1999.90;999.90;;;;;;;5.53;100.00;102017.81;5007979;28;20095;-73
2022/11/27 01:00:12;;;;;;;1999.90;999.90;;;;;;;5.45;100.00;102021.88;5013572;28;20026;-74
2022/11/27 01:02:38;;;;;;;1999.90;999.90;;;;;;;5.39;100.00;102026.84;5013779;28;20037;-74
2022/11/27 01:05:03;;;;;;;1999.90;999.90;;;;;;;5.35;100.00;102030.19;5013519;28;20034;-73
2022/11/27 01:07:29;;;;;;;1999.90;999.90;;;;;;;5.35;100.00;102028.47;4996028;28;20044;-74
2022/11/27 01:09:54;;;;;;;1999.90;999.90;;;;;;;5.34;100.00;102024.03;5011005;28;20034;-73
2022/11/27 01:12:19;;;;;;;1999.90;999.90;;;;;;;5.38;100.00;102014.59;5005336;28;20029;-73
2022/11/27 01:14:45;;;;;;;1999.90;999.90;;;;;;;5.36;100.00;102016.25;5002460;28;20038;-73
2022/11/27 01:17:10;;;;;;;1999.90;999.90;;;;;;;5.25;100.00;102008.88;5005579;28;20060;-73
2022/11/27 01:19:36;;;;;;;1999.90;999.90;;;;;;;5.17;100.00;102005.06;5003017;28;20042;-73
2022/11/27 01:22:02;;;;;;;1999.90;999.90;;;;;;;5.03;100.00;101998.38;5004518;28;20535;-73
2022/11/27 01:24:27;;;;;;;1999.90;999.90;;;;;;;4.89;100.00;101995.22;5005884;28;20113;-73
2022/11/27 01:26:52;;;;;;;1999.90;999.90;;;;;;;4.72;100.00;101999.78;4985513;28;20053;-73
2022/11/27 01:29:18;;;;;;;1999.90;999.90;;;;;;;4.60;100.00;101999.25;5005319;28;20033;-73
2022/11/27 01:31:43;;;;;;;1999.90;999.90;;;;;;;4.46;100.00;101992.56;5002305;28;20137;-73
2022/11/27 01:34:13;;;;;;;1999.90;999.90;;;;;;;4.32;100.00;101995.50;5008775;28;20133;-73
2022/11/27 01:36:39;;;;;;;1999.90;999.90;;;;;;;4.20;100.00;102000.19;5008135;28;20507;-73
2022/11/27 01:39:04;;;;;;;1999.90;999.90;;;;;;;4.07;100.00;102004.00;5005964;28;20113;-73
2022/11/27 01:41:35;;;;;;;1999.90;999.90;;;;;;;3.93;100.00;102002.50;5002746;28;20117;-73
2022/11/27 01:44:21;;;;;;;1999.90;999.90;;;;;;;3.84;100.00;101996.84;5005123;28;20034;-73
2022/11/27 01:46:49;;;;;;;1999.90;999.90;;;;;;;3.77;100.00;101985.22;5001706;28;20073;-73
2022/11/27 01:49:29;;;;;;;1999.90;999.90;;;;;;;3.70;100.00;101980.56;5004464;28;20042;-73
2022/11/27 01:52:06;;;;;;;1999.90;999.90;;;;;;;3.60;100.00;101971.44;5005183;28;20037;-73
2022/11/27 01:54:49;;;;;;;1999.90;999.90;;;;;;;3.49;100.00;101973.56;5005014;28;20496;-73
2022/11/27 01:57:18;;;;;;;;;;;;;;;3.41;100.00;101981.88;5008737;28;20034;-73
2022/11/27 01:59:45;;;;;;;1999.90;999.90;;;;;;;3.24;100.00;101975.84;4997799;28;19917;-73
2022/11/27 02:02:10;;;;;;;1999.90;999.90;;;;;;;3.06;100.00;101971.53;5010143;28;20042;-73
2022/11/27 02:04:36;;;;;;;1999.90;999.90;;;;;;;2.93;100.00;101966.56;4995211;28;20104;-73
2022/11/27 02:07:02;;;;;;;1999.90;999.90;;;;;;;2.84;100.00;101973.97;5008600;28;20057;-73
2022/11/27 02:09:28;;;;;;;1999.90;999.90;;;;;;;2.76;100.00;101959.66;4998237;28;20109;-73
2022/11/27 02:12:12;;;;;;;1999.90;999.90;;;;;;;2.70;100.00;101957.66;5003231;28;20065;-73
2022/11/27 02:14:46;;;;;;;1999.90;999.90;;;;;;;2.60;100.00;101956.31;5001760;28;20116;-74
2022/11/27 02:17:16;;;;;;;1999.90;999.90;;;;;;;2.58;100.00;101959.66;5002049;28;20073;-73
2022/11/27 02:20:19;;;;;;;1999.90;999.90;;;;;;;2.52;100.00;101952.44;5004874;28;20535;-72
2022/11/27 02:23:03;;;;;;;1999.90;999.90;;;;;;;2.44;100.00;101958.06;5001102;28;20109;-73
2022/11/27 02:25:49;;;;;;;1999.90;999.90;;;;;;;2.32;100.00;101950.53;5010377;28;20451;-73
2022/11/27 02:28:36;;;;;;;1999.90;999.90;;;;;;;2.21;100.00;101952.63;5001408;28;20457;-73
2022/11/27 02:31:27;;;;;;;1999.90;999.90;;;;;;;2.12;100.00;101958.25;5001906;28;20122;-73
2022/11/27 02:33:57;;;;;;;1999.90;999.90;;;;;;;2.05;100.00;101956.16;5007863;28;20037;-73
2022/11/27 02:36:28;;;;;;;1999.90;999.90;;;;;;;1.98;100.00;101954.94;5006716;28;20045;-72
2022/11/27 02:39:13;;;;;;;1999.90;999.90;;;;;;;1.91;100.00;101955.44;5003309;28;20493;-73
2022/11/27 02:41:46;;;;;;;1999.90;999.90;;;;;;;1.85;100.00;101965.53;5003176;28;20041;-72
2022/11/27 02:44:12;;;;;;;1999.90;999.90;;;;;;;1.80;100.00;101963.50;4986806;28;20783;-73
2022/11/27 02:46:39;;;;;;;1999.90;999.90;;;;;;;1.79;100.00;101962.63;5003128;28;20033;-73
2022/11/27 02:49:09;;;;;;;1999.90;999.90;;;;;;;1.74;100.00;101962.38;5003272;28;20042;-73
2022/11/27 02:51:41;;;;;;;1999.90;999.90;;;;;;;1.77;100.00;101965.94;5005675;28;20428;-73
2022/11/27 02:54:11;;;;;;;1999.90;999.90;;;;;;;1.75;100.00;101955.44;5001065;28;20046;-74
2022/11/27 02:56:39;;;;;;;1999.90;999.90;;;;;;;1.72;100.00;101958.78;5004192;28;20203;-73
2022/11/27 02:59:08;;;;;;;1999.90;999.90;;;;;;;1.60;100.00;101965.97;5001528;28;20034;-73
2022/11/27 03:01:40;;;;;;;1999.90;999.90;;;;;;;1.54;100.00;101968.22;5003875;28;20049;-73
2022/11/27 03:04:10;;;;;;;1999.90;999.90;;;;;;;1.44;100.00;101963.31;5001494;28;20043;-73
2022/11/27 03:06:41;;;;;;;1999.90;999.90;;;;;;;1.39;100.00;101957.91;5005379;28;20125;-73
2022/11/27 03:09:12;;;;;;;1999.90;999.90;;;;;;;1.38;100.00;101960.41;4995545;28;20129;-73
2022/11/27 03:11:37;;;;;;;1999.90;999.90;;;;;;;1.40;100.00;101958.78;5004429;28;20477;-73
2022/11/27 03:14:07;;;;;;;1999.90;999.90;;;;;;;1.37;100.00;101969.94;5000328;28;20037;-73
2022/11/27 03:17:00;;;;;;;1999.90;999.90;;;;;;;1.29;100.00;101969.50;5000399;28;20038;-73
2022/11/27 03:19:40;;;;;;;1999.90;999.90;;;;;;;1.27;100.00;101971.13;5003580;28;20128;-73
2022/11/27 03:22:06;;;;;;;1999.90;999.90;;;;;;;1.19;100.00;101964.63;5002682;28;20124;-72
2022/11/27 03:24:33;;;;;;;1999.90;999.90;;;;;;;1.11;100.00;101967.63;5001300;28;20165;-72
2022/11/27 03:27:00;;;;;;;1999.90;999.90;;;;;;;1.09;100.00;101971.00;5003442;28;20073;-71
2022/11/27 03:29:35;;;;;;;1999.90;999.90;;;;;;;1.09;100.00;101964.91;5000914;28;20042;-72
2022/11/27 03:32:01;;;;;;;1999.90;999.90;;;;;;;1.06;100.00;101968.25;5003819;28;20041;-72
2022/11/27 03:34:27;;;;;;;1999.90;999.90;;;;;;;1.04;100.00;101972.44;5006483;28;20061;-72
2022/11/27 03:36:53;;;;;;;1999.90;999.90;;;;;;;0.96;100.00;101958.13;5005306;28;20121;-72
2022/11/27 03:39:20;;;;;;;1999.90;999.90;;;;;;;0.97;100.00;101959.03;5003931;28;20056;-72
2022/11/27 03:42:03;;;;;;;1999.90;999.90;;;;;;;0.99;100.00;101952.22;5001778;28;20038;-72
2022/11/27 03:44:47;;;;;;;1999.90;999.90;;;;;;;0.99;100.00;101944.41;5002301;28;20038;-71
2022/11/27 03:47:50;;;;;;;1999.90;999.90;;;;;;;1.00;100.00;101944.50;4999741;28;20089;-72
2022/11/27 03:50:45;;;;;;;1999.90;999.90;;;;;;;0.94;100.00;101940.66;5001182;28;20493;-71
2022/11/27 03:53:38;;;;;;;1999.90;999.90;;;;;;;0.93;100.00;101944.09;5002551;28;20046;-72
2022/11/27 03:56:32;;;;;;;;;;;;;;;0.90;100.00;101938.72;5003124;28;20049;-71
2022/11/27 03:59:04;;;;;;;1999.90;999.90;;;;;;;0.88;100.00;101934.31;4986597;28;19913;-72
2022/11/27 04:01:30;;;;;;;1999.90;999.90;;;;;;;0.83;100.00;101934.88;5001194;28;20141;-71
2022/11/27 04:03:55;;;;;;;1999.90;999.90;;;;;;;0.81;100.00;101933.88;5003579;28;20042;-72
2022/11/27 04:06:20;;;;;;;1999.90;999.90;;;;;;;0.73;100.00;101937.75;5004696;28;20045;-72
2022/11/27 04:08:46;;;;;;;1999.90;999.90;;;;;;;0.71;100.00;101934.19;5000664;28;20037;-71
2022/11/27 04:11:12;;;;;;;1999.90;999.90;;;;;;;0.77;100.00;101931.94;4999732;28;20556;-71
2022/11/27 04:13:38;;;;;;;1999.90;999.90;;;;;;;0.91;100.00;101932.69;5003913;28;20033;-72
2022/11/27 04:16:03;;;;;;;1999.90;999.90;;;;;;;1.01;100.00;101935.88;5002782;28;20029;-72
2022/11/27 04:18:29;;;;;;;1999.90;999.90;;;;;;;1.05;100.00;101931.78;5010311;28;20099;-72
2022/11/27 04:20:54;;;;;;;1999.90;999.90;;;;;;;1.02;100.00;101935.09;5004662;28;20032;-72
2022/11/27 04:23:20;;;;;;;1999.90;999.90;;;;;;;0.95;100.00;101934.69;5000080;28;20061;-72
2022/11/27 04:25:46;;;;;;;1999.90;999.90;;;;;;;0.95;100.00;101939.88;5002554;28;20041;-72
2022/11/27 04:28:11;;;;;;;1999.90;999.90;;;;;;;0.93;100.00;101931.09;5004789;28;20042;-72
2022/11/27 04:30:37;;;;;;;1999.90;999.90;;;;;;;0.90;100.00;101936.13;5005954;28;20392;-72
2022/11/27 04:33:02;;;;;;;1999.90;999.90;;;;;;;0.90;100.00;101941.31;5005045;28;20519;-71
2022/11/27 04:35:27;;;;;;;1999.90;999.90;;;;;;;0.87;100.00;101942.03;5007051;28;20540;-71
2022/11/27 04:37:55;;;;;;;1999.90;999.90;;;;;;;0.81;100.00;101936.47;5011733;28;20548;-71
2022/11/27 04:40:20;;;;;;;1999.90;999.90;;;;;;;0.79;100.00;101938.13;5006705;28;20085;-71
2022/11/27 04:42:46;;;;;;;1999.90;999.90;;;;;;;0.82;100.00;101938.28;5003645;28;20069;-72
2022/11/27 04:45:11;;;;;;;1999.90;999.90;;;;;;;0.82;100.00;101936.59;4987983;28;20042;-72
2022/11/27 04:47:37;;;;;;;1999.90;999.90;;;;;;;0.82;100.00;101933.09;5004521;28;20468;-72
2022/11/27 04:50:02;;;;;;;1999.90;999.90;;;;;;;0.85;100.00;101934.16;5004431;28;20041;-72
2022/11/27 04:52:28;;;;;;;1999.90;999.90;;;;;;;0.82;100.00;101923.59;5006235;28;20042;-72
2022/11/27 04:54:53;;;;;;;1999.90;999.90;;;;;;;0.83;100.00;101927.97;5019886;28;20025;-72
2022/11/27 04:57:18;;;;;;;1999.90;999.90;;;;;;;0.86;100.00;101933.34;5013668;28;20042;-72
2022/11/27 04:59:44;;;;;;;1999.90;999.90;;;;;;;0.85;100.00;101926.34;5005430;28;20041;-72
2022/11/27 05:02:09;;;;;;;1999.90;999.90;;;;;;;0.80;100.00;101926.91;5004146;28;20452;-71
2022/11/27 05:04:34;;;;;;;1999.90;999.90;;;;;;;0.79;100.00;101925.13;5004110;28;20041;-72
2022/11/27 05:07:00;;;;;;;1999.90;999.90;;;;;;;0.74;100.00;101921.38;5007631;28;20034;-72
2022/11/27 05:09:25;;;;;;;1999.90;999.90;;;;;;;0.70;100.00;101922.00;4999324;28;20070;-72
2022/11/27 05:11:50;;;;;;;1999.90;999.90;;;;;;;0.71;100.00;101923.78;5006274;28;20116;-72
2022/11/27 05:14:16;;;;;;;1999.90;999.90;;;;;;;0.74;100.00;101939.56;5005481;28;20140;-72
2022/11/27 05:16:50;;;;;;;1999.90;999.90;;;;;;;0.72;100.00;101936.00;5003328;28;20046;-72
2022/11/27 05:19:17;;;;;;;1999.90;999.90;;;;;;;0.61;100.00;101935.38;5003334;28;20030;-72
2022/11/27 05:21:44;;;;;;;1999.90;999.90;;;;;;;0.52;100.00;101943.53;5002664;28;20424;-71
2022/11/27 05:24:09;;;;;;;1999.90;999.90;;;;;;;0.44;100.00;101950.88;5003637;28;20095;-72
2022/11/27 05:26:36;;;;;;;1999.90;999.90;;;;;;;0.40;100.00;101953.25;5008674;28;20125;-72
2022/11/27 05:29:02;;;;;;;1999.90;999.90;;;;;;;0.32;100.00;101955.38;5003713;28;20038;-71
2022/11/27 05:31:27;;;;;;;1999.90;999.90;;;;;;;0.29;100.00;101954.28;5007378;28;20034;-72
2022/11/27 05:33:52;;;;;;;1999.90;999.90;;;;;;;0.28;100.00;101956.00;5012391;28;20160;-72
2022/11/27 05:36:18;;;;;;;1999.90;999.90;;;;;;;0.24;100.00;101955.72;5007099;28;20038;-71
2022/11/27 05:38:43;;;;;;;1999.90;999.90;;;;;;;0.22;100.00;101953.06;5007535;28;20044;-71
2022/11/27 05:41:09;;;;;;;1999.90;999.90;;;;;;;0.19;100.00;101958.97;5004937;28;20632;-72
2022/11/27 05:43:34;;;;;;;1999.90;999.90;;;;;;;0.17;100.00;101959.69;5009029;28;20117;-72
2022/11/27 05:46:08;;;;;;;1999.90;999.90;;;;;;;0.18;100.00;101958.88;5005270;28;20029;-71
2022/11/27 05:48:35;;;;;;;1999.90;999.90;;;;;;;0.15;100.00;101956.09;5002108;28;20388;-72
2022/11/27 05:51:01;;;;;;;1999.90;999.90;;;;;;;0.12;100.00;101951.63;5004484;28;20032;-72
2022/11/27 05:53:26;;;;;;;1999.90;999.90;;;;;;;0.02;100.00;101953.59;5003070;28;20404;-71
2022/11/27 05:55:51;;;;;;;1999.90;999.90;;;;;;;-0.15;100.00;101944.81;5004768;28;20045;-72
2022/11/27 05:58:17;;;;;;;1999.90;999.90;;;;;;;-0.16;100.00;101940.41;5005493;28;20052;-72
2022/11/27 06:00:43;;;;;;;1999.90;999.90;;;;;;;-0.12;100.00;101945.88;5005784;28;20120;-72
2022/11/27 06:03:09;;;;;;;1999.90;999.90;;;;;;;-0.12;100.00;101948.47;5004619;28;20061;-71
2022/11/27 06:05:38;;;;;;;1999.90;999.90;;;;;;;-0.12;100.00;101948.47;5003961;28;20042;-72
2022/11/27 06:08:03;;;;;;;1999.90;999.90;;;;;;;-0.20;100.00;101936.75;5007169;28;20394;-72
2022/11/27 06:10:29;;;;;;;1999.90;999.90;;;;;;;-0.22;100.00;101939.22;5009545;28;20037;-71
2022/11/27 06:12:54;;;;;;;1999.90;999.90;;;;;;;-0.20;100.00;101931.56;5006507;28;20034;-72
2022/11/27 06:15:20;;;;;;;1999.90;999.90;;;;;;;-0.15;100.00;101924.06;5006375;28;20030;-71
2022/11/27 06:17:47;;;;;;;1999.90;999.90;;;;;;;-0.11;100.00;101920.81;5003472;28;20045;-71
2022/11/27 06:20:13;;;;;;;1999.90;999.90;;;;;;;-0.10;100.00;101926.09;5003420;28;20076;-72
2022/11/27 06:22:38;;;;;;;1999.90;999.90;;;;;;;-0.13;100.00;101928.53;5002897;28;20062;-72
2022/11/27 06:25:04;;;;;;;1999.90;999.90;;;;;;;-0.12;100.00;101932.91;5001986;28;20485;-72
2022/11/27 06:27:34;;;;;;;1999.90;999.90;;;;;;;-0.03;100.00;101942.91;5004352;28;20034;-72
2022/11/27 06:29:59;;;;;;;1999.90;999.90;;;;;;;-0.05;100.00;101931.56;5001363;28;20539;-72
2022/11/27 06:32:25;;;;;;;1999.90;999.90;;;;;;;-0.08;100.00;101919.31;5002728;28;20037;-72
2022/11/27 06:34:50;;;;;;;1999.90;999.90;;;;;;;-0.05;100.00;101916.00;5005382;28;20396;-72
2022/11/27 06:37:16;;;;;;;1999.90;999.90;;;;;;;-0.09;100.00;101914.03;5011722;28;20049;-72
2022/11/27 06:39:41;;;;;;;1999.90;999.90;;;;;;;-0.11;100.00;101921.69;5007514;28;20065;-71
2022/11/27 06:42:07;;;;;;;1999.90;999.90;;;;;;;-0.09;100.00;101922.69;5001068;28;20077;-72
2022/11/27 06:44:32;;;;;;;1999.90;999.90;;;;;;;-0.12;100.00;101914.72;5003945;28;20692;-72
2022/11/27 06:46:58;;;;;;;1999.90;999.90;;;;;;;-0.21;100.00;101911.56;5001111;28;20050;-72
2022/11/27 06:49:23;;;;;;;1999.90;999.90;;;;;;;-0.32;100.00;101917.84;5004510;28;20034;-71
2022/11/27 06:51:49;;;;;;;1999.90;999.90;;;;;;;-0.34;100.00;101922.94;5003903;28;20034;-72
2022/11/27 06:54:15;;;;;;;1999.90;999.90;;;;;;;-0.28;100.00;101919.81;5002732;28;20065;-72
2022/11/27 06:56:40;;;;;;;1999.90;999.90;;;;;;;-0.23;100.00;101916.69;5000688;28;20038;-72
2022/11/27 06:59:05;;;;;;;1999.90;999.90;;;;;;;-0.22;100.00;101922.78;5003888;28;20041;-71
2022/11/27 07:01:31;;;;;;;1999.90;999.90;;;;;;;-0.19;100.00;101922.94;5003449;28;20255;-71
2022/11/27 07:03:57;;;;;;;1999.90;999.90;;;;;;;-0.19;100.00;101922.06;4999989;28;20045;-71
2022/11/27 07:06:24;;;;;;;1999.90;999.90;;;;;;;-0.23;100.00;101915.81;5001116;28;20203;-72
2022/11/27 07:08:49;;;;;;;1999.90;999.90;;;;;;;-0.25;100.00;101922.59;5005423;28;20065;-71
2022/11/27 07:11:18;;;;;;;1999.90;999.90;;;;;;;-0.25;100.00;101912.22;5007910;28;20146;-71
2022/11/27 07:13:44;;;;;;;1999.90;999.90;;;;;;;-0.20;100.00;101921.16;4999965;28;20168;-71
2022/11/27 07:16:11;;;;;;;1999.90;999.90;;;;;;;-0.16;100.00;101920.53;5003238;28;20034;-71
2022/11/27 07:18:39;;;;;;;1999.90;999.90;;;;;;;-0.16;100.00;101922.25;5001066;28;20493;-72
2022/11/27 07:21:05;;;;;;;1999.90;999.90;;;;;;;-0.12;100.00;101919.03;5008026;28;20034;-72
2022/11/27 07:23:30;;;;;;;1999.90;999.90;;;;;;;-0.09;100.00;101916.63;5010027;28;20038;-72
2022/11/27 07:25:56;;;;;;;1999.90;999.90;;;;;;;-0.05;100.00;101911.69;5003393;28;20030;-72
2022/11/27 07:28:21;;;;;;;1999.90;999.90;;;;;;;-0.05;100.00;101900.44;5004870;28;20563;-72
2022/11/27 07:30:54;;;;;;;1999.90;999.90;;;;;;;0.02;100.00;101905.16;5005094;28;20041;-72
2022/11/27 07:33:20;;;;;;;1999.90;999.90;;;;;;;0.06;100.00;101916.63;5000081;28;20096;-72
2022/11/27 07:35:45;;;;;;;1999.90;999.90;;;;;;;0.10;100.00;101908.19;5003559;28;20034;-71
2022/11/27 07:38:11;;;;;;;1999.90;999.90;;;;;;;0.19;100.00;101900.97;5002472;28;20049;-72
2022/11/27 07:40:37;;;;;;;1999.90;999.90;;;;;;;0.26;100.00;101894.41;5003728;28;20047;-72
2022/11/27 07:43:02;;;;;;;1999.90;999.90;;;;;;;0.32;100.00;101886.97;5002112;28;20563;-72
2022/11/27 07:45:27;;;;;;;1999.90;999.90;;;;;;;0.36;100.00;101882.03;5004871;28;20038;-72
2022/11/27 07:47:53;;;;;;;1999.90;999.90;;;;;;;0.42;100.00;101885.00;5004310;28;20535;-72
2022/11/27 07:50:18;;;;;;;1999.90;999.90;;;;;;;0.49;100.00;101886.22;5003081;28;20148;-72
2022/11/27 07:52:43;;;;;;;1999.90;999.90;;;;;;;0.57;100.00;101887.53;5004284;28;20053;-72
2022/11/27 07:55:09;;;;;;;1999.90;999.90;;;;;;;0.63;100.00;101884.41;5007073;28;20065;-73
2022/11/27 07:57:34;;;;;;;1999.90;999.90;;;;;;;0.70;100.00;101878.72;4995376;28;20038;-72
2022/11/27 08:00:00;;;;;;;1999.90;999.90;;;;;;;0.75;100.00;101877.28;5008726;28;20088;-73
2022/11/27 08:02:25;;;;;;;1999.90;999.90;;;;;;;0.82;100.00;101866.41;5009764;28;20042;-73
2022/11/27 08:04:51;;;;;;;1999.90;999.90;;;;;;;0.91;100.00;101867.72;5012634;28;20041;-73
2022/11/27 08:07:16;;;;;;;1999.90;999.90;;;;;;;0.96;100.00;101866.25;4992824;28;20049;-73
2022/11/27 08:09:41;;;;;;;1999.90;999.90;;;;;;;1.05;100.00;101858.97;5013971;28;20033;-73
2022/11/27 08:12:07;;;;;;;1999.90;999.90;;;;;;;1.13;100.00;101867.16;5006460;28;20049;-73
2022/11/27 08:14:32;;;;;;;1999.90;999.90;;;;;;;1.20;100.00;101854.56;5008551;28;20041;-73
2022/11/27 08:16:57;;;;;;;1999.90;999.90;;;;;;;1.24;100.00;101856.53;5007286;28;20069;-73
2022/11/27 08:19:23;;;;;;;1999.90;999.90;;;;;;;1.30;100.00;101855.94;5008859;28;20036;-72
2022/11/27 08:21:49;;;;;;;1999.90;999.90;;;;;;;1.39;100.00;101860.72;5013955;28;20046;-72
2022/11/27 08:24:14;;;;;;;1999.90;999.90;;;;;;;1.46;100.00;101855.03;5008596;28;20038;-72
2022/11/27 08:26:39;;;;;;;1999.90;999.90;;;;;;;1.51;100.00;101856.19;5006297;28;20037;-72
2022/11/27 08:29:05;;;;;;;1999.90;999.90;;;;;;;1.56;100.00;101865.13;5004477;28;20121;-73
2022/11/27 08:31:31;;;;;;;1999.90;999.90;;;;;;;1.65;100.00;101864.69;5007149;28;20023;-72
2022/11/27 08:33:57;;;;;;;1999.90;999.90;;;;;;;1.74;100.00;101866.06;5007176;28;20132;-73
2022/11/27 08:36:25;;;;;;;1999.90;999.90;;;;;;;1.84;100.00;101861.34;5009164;28;20776;-73
2022/11/27 08:38:51;;;;;;;1999.90;999.90;;;;;;;1.91;100.00;101859.13;5006808;28;20132;-73
2022/11/27 08:41:16;;;;;;;1999.90;999.90;;;;;;;2.00;100.00;101858.66;5003843;28;20117;-73
2022/11/27 08:43:42;;;;;;;1999.90;999.90;;;;;;;2.08;100.00;101852.13;5005373;28;20041;-73
2022/11/27 08:46:07;;;;;;;1999.90;999.90;;;;;;;2.17;100.00;101849.06;5004906;28;20038;-73
2022/11/27 08:48:33;;;;;;;1999.90;999.90;;;;;;;2.25;100.00;101854.66;5004188;28;20104;-73
2022/11/27 08:51:03;;;;;;;1999.90;999.90;;;;;;;2.35;100.00;101865.59;5006004;28;20476;-73
2022/11/27 08:53:28;;;;;;;1999.90;999.90;;;;;;;2.42;100.00;101861.59;5003460;28;20030;-73
2022/11/27 08:55:54;;;;;;;1999.90;999.90;;;;;;;2.49;100.00;101860.16;5010265;28;20500;-73
2022/11/27 08:58:19;;;;;;;1999.90;999.90;;;;;;;2.56;100.00;101849.22;5013906;28;20389;-73
2022/11/27 09:00:44;;;;;;;1999.90;999.90;;;;;;;2.64;100.00;101851.34;5013609;28;20049;-73
2022/11/27 09:03:11;;;;;;;1999.90;999.90;;;;;;;2.76;100.00;101850.16;5013693;28;20045;-73
2022/11/27 09:05:41;;;;;;;1999.90;999.90;;;;;;;2.88;100.00;101850.72;5013297;28;20068;-73
2022/11/27 09:08:06;;;;;;;1999.90;999.90;;;;;;;2.97;100.00;101845.03;5014929;28;20065;-73
2022/11/27 09:10:32;;;;;;;1999.90;999.90;;;;;;;3.03;100.00;101846.19;5011632;28;20069;-73
2022/11/27 09:12:58;;;;;;;1999.90;999.90;;;;;;;3.11;100.00;101845.66;5013006;28;20045;-73
2022/11/27 09:15:23;;;;;;;1999.90;999.90;;;;;;;3.17;100.00;101836.41;5006982;28;20400;-74
2022/11/27 09:17:49;;;;;;;1999.90;999.90;;;;;;;3.20;100.00;101836.53;5002478;28;20049;-75
2022/11/27 09:20:14;;;;;;;1999.90;999.90;;;;;;;3.23;100.00;101827.97;5003309;28;20042;-75
2022/11/27 09:22:40;;;;;;;1999.90;999.90;;;;;;;3.27;100.00;101824.66;5011803;28;20040;-75
2022/11/27 09:25:05;;;;;;;1999.90;999.90;;;;;;;3.36;100.00;101825.06;5006014;28;20455;-75
2022/11/27 09:27:31;;;;;;;1999.90;999.90;;;;;;;3.44;100.00;101828.91;5011350;28;20030;-76
2022/11/27 09:29:56;;;;;;;1999.90;999.90;;;;;;;3.55;100.00;101829.34;5005800;28;20045;-75
2022/11/27 09:32:22;;;;;;;1999.90;999.90;;;;;;;3.66;100.00;101827.19;5009761;28;20038;-75
2022/11/27 09:34:47;;;;;;;1999.90;999.90;;;;;;;3.76;100.00;101816.31;5012551;28;20034;-75
2022/11/27 09:37:12;;;;;;;1999.90;999.90;;;;;;;3.85;100.00;101803.66;5008839;28;20114;-75
2022/11/27 09:39:38;;;;;;;1999.90;999.90;;;;;;;3.93;100.00;101804.88;5004630;28;20574;-76
2022/11/27 09:42:05;;;;;;;1999.90;999.90;;;;;;;4.05;100.00;101800.97;5003648;28;20038;-76
2022/11/27 09:44:41;;;;;;;1999.90;999.90;;;;;;;4.15;100.00;101806.63;5011093;28;20037;-75
2022/11/27 09:47:25;;;;;;;1999.90;999.90;;;;;;;4.29;100.00;101795.81;5005856;28;20038;-75
2022/11/27 09:49:56;;;;;;;1999.90;999.90;;;;;;;4.42;100.00;101795.47;5002060;28;20031;-76
2022/11/27 09:52:34;;;;;;;1999.90;999.90;;;;;;;4.52;100.00;101795.00;5004304;28;20033;-76
2022/11/27 09:55:36;;;;;;;1999.90;999.90;;;;;;;4.67;100.00;101785.97;4988102;28;20034;-76
2022/11/27 09:58:12;;;;;;;1999.90;999.90;;;;;;;4.79;100.00;101775.97;4964215;28;20058;-76
2022/11/27 10:00:37;;;;;;;1999.90;999.90;;;;;;;4.91;100.00;101770.31;4984385;28;20045;-76
2022/11/27 10:03:06;;;;;;;1999.90;999.90;;;;;;;5.08;100.00;101771.78;5003523;28;20460;-75
2022/11/27 10:05:42;;;;;;;1999.90;999.90;;;;;;;5.23;100.00;101764.50;4988209;28;20038;-76
2022/11/27 10:08:24;;;;;;;1999.90;999.90;;;;;;;5.36;100.00;101763.19;5013290;28;20385;-76
2022/11/27 10:11:24;;;;;;;1999.90;999.90;;;;;;;5.50;100.00;101774.13;5005341;28;20084;-76
2022/11/27 10:14:28;;;;;;;1999.90;999.90;;;;;;;5.64;100.00;101770.28;5004822;28;20076;-76
2022/11/27 10:17:14;;;;;;;1999.90;999.90;;;;;;;5.68;100.00;101771.25;4923501;29;20058;-76
2022/11/27 10:19:59;;;;;;;1999.90;999.90;;;;;;;5.76;100.00;101768.91;4999645;28;20050;-76
2022/11/27 10:22:34;;;;;;;1999.90;999.90;;;;;;;5.81;100.00;101764.69;5002082;28;20027;-77
2022/11/27 10:25:06;;;;;;;1999.90;999.90;;;;;;;5.88;100.00;101761.44;5001306;28;20045;-77
2022/11/27 10:27:42;;;;;;;1999.90;999.90;;;;;;;5.90;100.00;101760.66;5001569;28;20057;-78
2022/11/27 10:30:19;;;;;;;1999.90;999.90;;;;;;;5.95;100.00;101753.00;4987995;28;20120;-79
2022/11/27 10:32:48;;;;;;;1999.90;999.90;;;;;;;5.94;100.00;101756.44;5004087;28;20077;-79
2022/11/27 10:35:17;;;;;;;1999.90;999.90;;;;;;;5.99;100.00;101748.72;5002773;28;20040;-78
2022/11/27 10:37:58;;;;;;;1999.90;999.90;;;;;;;6.02;100.00;101744.47;5012745;28;20120;-79
2022/11/27 10:40:30;;;;;;;1999.90;999.90;;;;;;;6.10;100.00;101743.00;5006591;28;20041;-78
2022/11/27 10:43:14;;;;;;;1999.90;999.90;;;;;;;6.15;100.00;101736.13;5007655;28;20065;-78
2022/11/27 10:45:56;;;;;;;1999.90;999.90;;;;;;;6.21;100.00;101735.47;5009884;28;20050;-79
2022/11/27 10:48:22;;;;;;;1999.90;999.90;;;;;;;6.25;100.00;101739.06;5010276;28;20240;-78
2022/11/27 10:50:49;;;;;;;1999.90;999.90;;;;;;;6.30;100.00;101730.50;5003925;28;20576;-79
2022/11/27 10:53:27;;;;;;;1999.90;999.90;;;;;;;6.35;100.00;101728.00;5004371;28;20028;-80
2022/11/27 10:56:47;;;;;;;1999.90;999.90;;;;;;;6.45;100.00;101732.69;5004066;28;20496;-79